createdAt,value
2017-01-14T00:00:05.805Z,0
2017-01-14T00:00:47.244Z,0
2017-01-14T00:01:29.064Z,0
2017-01-14T00:02:10.811Z,0
2017-01-14T00:02:52.580Z,0
2017-01-14T00:05:34.125Z,0
2017-01-14T00:08:05.118Z,0
2017-01-14T00:10:41.347Z,0
2017-01-14T00:11:23.058Z,0
2017-01-14T00:12:04.897Z,0
2017-01-14T00:12:46.668Z,0
2017-01-14T00:13:27.633Z,0
2017-01-14T00:14:09.412Z,0
2017-01-14T00:14:51.123Z,0
2017-01-14T00:15:32.721Z,0
2017-01-14T00:18:02.342Z,0
2017-01-14T00:18:42.876Z,0
2017-01-14T00:19:23.411Z,0
2017-01-14T00:20:03.936Z,0
2017-01-14T00:20:44.772Z,0
2017-01-14T00:21:26.480Z,0
2017-01-14T00:22:08.115Z,0
2017-01-14T00:24:23.531Z,0
2017-01-14T00:26:54.554Z,0
2017-01-14T00:27:36.240Z,0
2017-01-14T00:29:51.719Z,0
2017-01-14T00:30:33.461Z,0
2017-01-14T00:31:15.212Z,0
2017-01-14T00:31:56.964Z,0
2017-01-14T00:32:38.632Z,0
2017-01-14T00:33:20.450Z,0
2017-01-14T00:34:02.138Z,0
2017-01-14T00:36:22.830Z,0
2017-01-14T00:37:04.455Z,0
2017-01-14T00:37:46.121Z,0
2017-01-14T00:38:27.892Z,0
2017-01-14T00:40:48.549Z,0
2017-01-14T00:43:19.606Z,0
2017-01-14T00:47:45.505Z,0
2017-01-14T00:48:27.236Z,0
2017-01-14T00:50:47.912Z,0
2017-01-14T00:51:29.716Z,0
2017-01-14T00:53:50.355Z,0
2017-01-14T00:54:31.928Z,0
2017-01-14T00:55:13.411Z,0
2017-01-14T00:55:55.133Z,0
2017-01-14T00:56:36.841Z,0
2017-01-14T00:57:18.572Z,0
2017-01-14T01:01:49.704Z,0
2017-01-14T01:04:10.158Z,0
2017-01-14T01:04:51.733Z,0
2017-01-14T01:07:33.587Z,0
2017-01-14T01:08:15.355Z,0
2017-01-14T01:10:51.716Z,0
2017-01-14T01:11:33.510Z,0
2017-01-14T01:12:15.238Z,0
2017-01-14T01:12:56.957Z,0
2017-01-14T01:13:38.724Z,0
2017-01-14T01:14:20.472Z,0
2017-01-14T01:15:02.214Z,0
2017-01-14T01:15:43.931Z,0
2017-01-14T01:17:59.349Z,0
2017-01-14T01:18:41.067Z,0
2017-01-14T01:19:22.838Z,0
2017-01-14T01:20:04.631Z,0
2017-01-14T01:22:25.315Z,0
2017-01-14T01:23:07.071Z,0
2017-01-14T01:23:48.791Z,0
2017-01-14T01:26:19.859Z,0
2017-01-14T01:27:01.697Z,0
2017-01-14T01:27:43.476Z,0
2017-01-14T01:28:25.267Z,0
2017-01-14T01:31:07.063Z,0
2017-01-14T01:33:27.646Z,0
2017-01-14T01:34:09.278Z,0
2017-01-14T01:34:51.013Z,0
2017-01-14T01:35:32.784Z,0
2017-01-14T01:36:14.486Z,0
2017-01-14T01:36:56.256Z,0
2017-01-14T01:37:37.900Z,0
2017-01-14T01:39:53.412Z,0
2017-01-14T01:40:35.177Z,0
2017-01-14T01:41:16.935Z,0
2017-01-14T01:41:58.614Z,0
2017-01-14T01:44:19.438Z,0
2017-01-14T01:45:01.184Z,0
2017-01-14T01:45:42.902Z,0
2017-01-14T01:48:19.331Z,0
2017-01-14T01:49:01.039Z,0
2017-01-14T01:49:42.761Z,0
2017-01-14T01:50:24.217Z,0
2017-01-14T01:51:05.932Z,0
2017-01-14T01:51:47.672Z,0
2017-01-14T01:52:29.353Z,0
2017-01-14T01:53:10.926Z,0
2017-01-14T01:53:52.714Z,0
2017-01-14T01:54:34.526Z,0
2017-01-14T01:55:15.921Z,0
2017-01-14T01:55:57.700Z,0
2017-01-14T01:58:18.124Z,0
2017-01-14T01:58:59.609Z,0
2017-01-14T02:01:35.649Z,0
2017-01-14T02:02:17.338Z,0
2017-01-14T02:02:59.093Z,0
2017-01-14T02:03:40.819Z,0
2017-01-14T02:04:22.458Z,0
2017-01-14T02:06:52.060Z,0
2017-01-14T02:07:32.592Z,0
2017-01-14T02:08:13.107Z,0
2017-01-14T02:08:53.640Z,0
2017-01-14T02:09:34.161Z,0
2017-01-14T02:10:14.684Z,0
2017-01-14T02:10:55.213Z,0
2017-01-14T02:11:35.737Z,0
2017-01-14T02:12:16.252Z,0
2017-01-14T02:12:56.784Z,0
2017-01-14T02:13:37.294Z,0
2017-01-14T02:14:17.811Z,0
2017-01-14T02:14:58.342Z,0
2017-01-14T02:15:38.874Z,0
2017-01-14T02:16:19.397Z,0
2017-01-14T02:16:59.930Z,0
2017-01-14T02:17:40.471Z,0
2017-01-14T02:18:20.990Z,0
2017-01-14T02:19:01.501Z,0
2017-01-14T02:19:42.022Z,0
2017-01-14T02:20:22.538Z,0
2017-01-14T02:21:03.060Z,0
2017-01-14T02:21:43.600Z,0
2017-01-14T02:22:24.117Z,0
2017-01-14T02:23:04.653Z,0
2017-01-14T02:23:45.179Z,0
2017-01-14T02:24:25.701Z,0
2017-01-14T02:25:06.210Z,0
2017-01-14T02:25:46.754Z,0
2017-01-14T02:26:27.253Z,0
2017-01-14T02:27:07.762Z,0
2017-01-14T02:27:48.289Z,0
2017-01-14T02:28:28.816Z,0
2017-01-14T02:29:09.335Z,0
2017-01-14T02:29:49.893Z,0
2017-01-14T02:30:30.435Z,0
2017-01-14T02:31:10.965Z,0
2017-01-14T02:31:51.510Z,0
2017-01-14T02:32:31.996Z,0
2017-01-14T02:33:12.520Z,0
2017-01-14T02:33:53.051Z,0
2017-01-14T02:34:33.558Z,0
2017-01-14T02:35:14.060Z,0
2017-01-14T02:35:54.592Z,0
2017-01-14T02:36:35.100Z,0
2017-01-14T02:37:15.631Z,0
2017-01-14T02:37:56.160Z,0
2017-01-14T02:38:36.698Z,0
2017-01-14T02:39:17.194Z,0
2017-01-14T02:39:57.724Z,0
2017-01-14T02:40:38.243Z,0
2017-01-14T02:41:18.755Z,0
2017-01-14T02:41:59.273Z,0
2017-01-14T02:42:39.796Z,0
2017-01-14T02:43:20.320Z,0
2017-01-14T02:44:00.906Z,0
2017-01-14T02:44:41.432Z,0
2017-01-14T02:45:21.941Z,0
2017-01-14T02:46:02.468Z,0
2017-01-14T02:46:43.014Z,0
2017-01-14T02:47:23.501Z,0
2017-01-14T02:48:04.015Z,0
2017-01-14T02:48:44.537Z,0
2017-01-14T02:49:25.047Z,0
2017-01-14T02:50:05.559Z,0
2017-01-14T02:50:46.604Z,0
2017-01-14T02:51:27.245Z,0
2017-01-14T02:52:07.775Z,0
2017-01-14T02:52:48.397Z,0
2017-01-14T02:53:29.074Z,0
2017-01-14T02:54:09.597Z,0
2017-01-14T02:54:50.119Z,0
2017-01-14T02:55:30.657Z,0
2017-01-14T02:56:11.184Z,0
2017-01-14T02:56:51.691Z,0
2017-01-14T02:57:32.225Z,0
2017-01-14T02:58:12.739Z,0
2017-01-14T02:58:53.267Z,0
2017-01-14T02:59:33.770Z,0
2017-01-14T03:00:14.306Z,0
2017-01-14T03:00:54.815Z,0
2017-01-14T03:01:35.340Z,0
2017-01-14T03:02:15.855Z,0
2017-01-14T03:02:56.359Z,0
2017-01-14T03:03:36.887Z,0
2017-01-14T03:04:17.421Z,0
2017-01-14T03:04:57.938Z,0
2017-01-14T03:05:38.465Z,0
2017-01-14T03:06:18.989Z,0
2017-01-14T03:06:59.506Z,0
2017-01-14T03:07:40.028Z,0
2017-01-14T03:08:20.547Z,0
2017-01-14T03:09:01.071Z,0
2017-01-14T03:09:41.577Z,0
2017-01-14T03:10:22.102Z,0
2017-01-14T03:11:02.635Z,0
2017-01-14T03:11:43.143Z,0
2017-01-14T03:12:23.665Z,0
2017-01-14T03:13:04.183Z,0
2017-01-14T03:13:44.706Z,0
2017-01-14T03:14:25.225Z,0
2017-01-14T03:15:05.730Z,0
2017-01-14T03:15:46.247Z,0
2017-01-14T03:16:26.779Z,0
2017-01-14T03:17:07.292Z,0
2017-01-14T03:17:47.822Z,0
2017-01-14T03:18:28.335Z,0
2017-01-14T03:19:08.866Z,0
2017-01-14T03:19:49.404Z,0
2017-01-14T03:20:29.930Z,0
2017-01-14T03:21:10.454Z,0
2017-01-14T03:21:50.993Z,0
2017-01-14T03:22:31.529Z,0
2017-01-14T03:23:12.035Z,0
2017-01-14T03:23:52.577Z,0
2017-01-14T03:24:33.102Z,0
2017-01-14T03:25:13.622Z,0
2017-01-14T03:25:54.157Z,0
2017-01-14T03:26:34.699Z,0
2017-01-14T03:27:15.224Z,0
2017-01-14T03:27:55.747Z,0
2017-01-14T03:28:36.261Z,0
2017-01-14T03:29:16.780Z,0
2017-01-14T03:29:57.279Z,0
2017-01-14T03:30:37.803Z,0
2017-01-14T03:31:18.326Z,0
2017-01-14T03:31:58.845Z,0
2017-01-14T03:32:39.359Z,0
2017-01-14T03:33:19.879Z,0
2017-01-14T03:34:00.380Z,0
2017-01-14T03:34:40.897Z,0
2017-01-14T03:35:21.425Z,0
2017-01-14T03:36:01.948Z,0
2017-01-14T03:36:42.468Z,0
2017-01-14T03:37:22.994Z,0
2017-01-14T03:38:03.496Z,0
2017-01-14T03:38:44.011Z,0
2017-01-14T03:39:24.529Z,0
2017-01-14T03:40:05.089Z,0
2017-01-14T03:40:45.632Z,0
2017-01-14T03:41:26.154Z,0
2017-01-14T03:42:06.673Z,0
2017-01-14T03:42:47.182Z,0
2017-01-14T03:43:27.707Z,0
2017-01-14T03:44:08.229Z,0
2017-01-14T03:44:48.766Z,0
2017-01-14T03:45:29.288Z,0
2017-01-14T03:46:09.799Z,0
2017-01-14T03:46:50.319Z,0
2017-01-14T03:47:30.851Z,0
2017-01-14T03:48:11.444Z,0
2017-01-14T03:48:51.952Z,0
2017-01-14T03:49:32.487Z,0
2017-01-14T03:50:13.002Z,0
2017-01-14T03:50:53.512Z,0
2017-01-14T03:51:34.044Z,0
2017-01-14T03:52:14.561Z,0
2017-01-14T03:52:55.068Z,0
2017-01-14T03:53:35.594Z,0
2017-01-14T03:54:16.090Z,0
2017-01-14T03:54:56.616Z,0
2017-01-14T03:55:37.133Z,0
2017-01-14T03:56:17.647Z,0
2017-01-14T03:56:58.176Z,0
2017-01-14T03:57:38.698Z,0
2017-01-14T03:58:19.212Z,0
2017-01-14T03:58:59.718Z,0
2017-01-14T03:59:40.249Z,0
2017-01-14T04:00:20.766Z,0
2017-01-14T04:01:01.288Z,0
2017-01-14T04:01:41.880Z,0
2017-01-14T04:02:22.397Z,0
2017-01-14T04:03:02.916Z,0
2017-01-14T04:03:43.445Z,0
2017-01-14T04:04:23.948Z,0
2017-01-14T04:05:04.486Z,0
2017-01-14T04:05:44.992Z,0
2017-01-14T04:06:25.508Z,0
2017-01-14T04:07:06.031Z,0
2017-01-14T04:07:46.557Z,0
2017-01-14T04:08:27.089Z,0
2017-01-14T04:09:07.596Z,0
2017-01-14T04:09:48.122Z,0
2017-01-14T04:10:28.651Z,0
2017-01-14T04:11:09.177Z,0
2017-01-14T04:11:49.692Z,0
2017-01-14T04:12:30.204Z,0
2017-01-14T04:13:10.728Z,0
2017-01-14T04:13:51.243Z,0
2017-01-14T04:14:31.773Z,0
2017-01-14T04:15:12.294Z,0
2017-01-14T04:15:52.820Z,0
2017-01-14T04:16:33.338Z,0
2017-01-14T04:17:13.854Z,0
2017-01-14T04:17:54.389Z,0
2017-01-14T04:18:34.894Z,0
2017-01-14T04:19:15.415Z,0
2017-01-14T04:19:55.958Z,0
2017-01-14T04:20:36.443Z,0
2017-01-14T04:21:16.961Z,0
2017-01-14T04:21:57.475Z,0
2017-01-14T04:22:37.992Z,0
2017-01-14T04:23:18.515Z,0
2017-01-14T04:23:59.028Z,0
2017-01-14T04:24:39.547Z,0
2017-01-14T04:25:20.081Z,0
2017-01-14T04:26:00.594Z,0
2017-01-14T04:26:41.126Z,0
2017-01-14T04:27:21.658Z,0
2017-01-14T04:28:02.184Z,0
2017-01-14T04:28:42.701Z,0
2017-01-14T04:29:23.222Z,0
2017-01-14T04:30:03.753Z,0
2017-01-14T04:30:44.258Z,0
2017-01-14T04:31:24.773Z,0
2017-01-14T04:32:05.300Z,0
2017-01-14T04:32:45.805Z,0
2017-01-14T04:33:26.327Z,0
2017-01-14T04:34:06.851Z,0
2017-01-14T04:34:47.356Z,0
2017-01-14T04:35:27.885Z,0
2017-01-14T04:36:08.398Z,0
2017-01-14T04:36:48.927Z,0
2017-01-14T04:37:29.457Z,0
2017-01-14T04:38:09.964Z,0
2017-01-14T04:38:50.482Z,0
2017-01-14T04:39:31.013Z,0
2017-01-14T04:40:11.530Z,0
2017-01-14T04:40:52.048Z,0
2017-01-14T04:41:32.579Z,0
2017-01-14T04:42:13.117Z,0
2017-01-14T04:42:53.649Z,0
2017-01-14T04:43:34.168Z,0
2017-01-14T04:44:14.680Z,0
2017-01-14T04:44:55.200Z,0
2017-01-14T04:45:35.737Z,0
2017-01-14T04:46:16.269Z,0
2017-01-14T04:46:56.794Z,0
2017-01-14T04:47:37.331Z,0
2017-01-14T04:48:17.864Z,0
2017-01-14T04:48:58.380Z,0
2017-01-14T04:49:38.896Z,0
2017-01-14T04:50:19.433Z,0
2017-01-14T04:50:59.953Z,0
2017-01-14T04:51:40.536Z,0
2017-01-14T04:52:21.061Z,0
2017-01-14T04:53:01.587Z,0
2017-01-14T04:53:42.093Z,0
2017-01-14T04:54:22.616Z,0
2017-01-14T04:55:03.132Z,0
2017-01-14T04:55:43.661Z,0
2017-01-14T04:56:24.178Z,0
2017-01-14T04:57:04.710Z,0
2017-01-14T04:57:45.232Z,0
2017-01-14T04:58:25.748Z,0
2017-01-14T04:59:06.286Z,0
2017-01-14T04:59:46.850Z,0
2017-01-14T05:00:27.332Z,0
2017-01-14T05:01:07.849Z,0
2017-01-14T05:01:48.375Z,0
2017-01-14T05:02:28.915Z,0
2017-01-14T05:03:09.433Z,0
2017-01-14T05:03:49.952Z,0
2017-01-14T05:04:30.482Z,0
2017-01-14T05:05:11.012Z,0
2017-01-14T05:05:51.527Z,0
2017-01-14T05:06:32.049Z,0
2017-01-14T05:07:12.605Z,0
2017-01-14T05:07:53.139Z,0
2017-01-14T05:08:33.666Z,0
2017-01-14T05:09:14.173Z,0
2017-01-14T05:09:54.684Z,0
2017-01-14T05:10:35.209Z,0
2017-01-14T05:11:15.899Z,0
2017-01-14T05:11:56.399Z,0
2017-01-14T05:12:36.919Z,0
2017-01-14T05:13:17.447Z,0
2017-01-14T05:13:57.982Z,0
2017-01-14T05:14:38.476Z,0
2017-01-14T05:15:18.993Z,0
2017-01-14T05:15:59.498Z,0
2017-01-14T05:16:40.019Z,0
2017-01-14T05:17:20.543Z,0
2017-01-14T05:18:01.065Z,0
2017-01-14T05:18:41.594Z,0
2017-01-14T05:19:22.115Z,0
2017-01-14T05:20:02.620Z,0
2017-01-14T05:20:43.123Z,0
2017-01-14T05:21:23.658Z,0
2017-01-14T05:22:04.192Z,0
2017-01-14T05:22:44.717Z,0
2017-01-14T05:23:25.223Z,0
2017-01-14T05:24:05.750Z,0
2017-01-14T05:24:46.273Z,0
2017-01-14T05:25:26.795Z,0
2017-01-14T05:26:07.318Z,0
2017-01-14T05:26:47.849Z,0
2017-01-14T05:27:28.380Z,0
2017-01-14T05:28:08.893Z,0
2017-01-14T05:28:49.396Z,0
2017-01-14T05:29:29.924Z,0
2017-01-14T05:30:10.448Z,0
2017-01-14T05:30:50.971Z,0
2017-01-14T05:31:31.483Z,0
2017-01-14T05:32:12.011Z,0
2017-01-14T05:32:52.518Z,0
2017-01-14T05:33:33.029Z,0
2017-01-14T05:36:02.483Z,0
2017-01-14T05:36:43.008Z,0
2017-01-14T05:37:23.534Z,0
2017-01-14T05:38:04.053Z,0
2017-01-14T05:38:44.551Z,0
2017-01-14T05:39:25.081Z,0
2017-01-14T05:40:05.613Z,0
2017-01-14T05:40:46.119Z,0
2017-01-14T05:41:26.654Z,0
2017-01-14T05:42:07.175Z,0
2017-01-14T05:42:47.674Z,0
2017-01-14T05:43:28.202Z,0
2017-01-14T05:44:08.705Z,0
2017-01-14T05:44:49.217Z,0
2017-01-14T05:45:29.733Z,0
2017-01-14T05:46:10.273Z,0
2017-01-14T05:46:50.768Z,0
2017-01-14T05:47:31.292Z,0
2017-01-14T05:48:11.789Z,0
2017-01-14T05:48:52.299Z,0
2017-01-14T05:49:32.826Z,0
2017-01-14T05:50:13.327Z,0
2017-01-14T05:50:53.838Z,0
2017-01-14T05:51:35.238Z,0
2017-01-14T05:52:15.356Z,0
2017-01-14T05:52:55.870Z,0
2017-01-14T05:53:36.389Z,0
2017-01-14T05:54:16.906Z,0
2017-01-14T05:54:57.420Z,0
2017-01-14T05:55:37.940Z,0
2017-01-14T05:56:18.457Z,0
2017-01-14T05:56:58.967Z,0
2017-01-14T05:57:39.473Z,0
2017-01-14T05:58:19.989Z,0
2017-01-14T05:59:00.504Z,0
2017-01-14T05:59:41.024Z,0
2017-01-14T06:00:21.552Z,0
2017-01-14T06:01:02.065Z,0
2017-01-14T06:01:42.588Z,0
2017-01-14T06:02:23.111Z,0
2017-01-14T06:03:03.622Z,0
2017-01-14T06:03:44.141Z,0
2017-01-14T06:04:24.668Z,0
2017-01-14T06:05:05.184Z,0
2017-01-14T06:05:45.690Z,0
2017-01-14T06:06:26.220Z,0
2017-01-14T06:07:06.723Z,0
2017-01-14T06:07:47.233Z,0
2017-01-14T06:08:27.750Z,0
2017-01-14T06:09:08.256Z,0
2017-01-14T06:09:48.790Z,0
2017-01-14T06:10:29.316Z,0
2017-01-14T06:11:09.846Z,0
2017-01-14T06:11:50.342Z,0
2017-01-14T06:12:30.856Z,0
2017-01-14T06:13:11.386Z,0
2017-01-14T06:13:51.945Z,0
2017-01-14T06:14:32.453Z,0
2017-01-14T06:15:12.964Z,0
2017-01-14T06:15:53.491Z,0
2017-01-14T06:16:34.016Z,0
2017-01-14T06:17:14.543Z,0
2017-01-14T06:17:55.047Z,0
2017-01-14T06:18:35.569Z,0
2017-01-14T06:19:16.095Z,0
2017-01-14T06:19:56.646Z,0
2017-01-14T06:20:37.162Z,0
2017-01-14T06:21:17.680Z,0
2017-01-14T06:21:58.194Z,0
2017-01-14T06:22:38.724Z,0
2017-01-14T06:23:19.247Z,0
2017-01-14T06:23:59.802Z,0
2017-01-14T06:24:40.296Z,0
2017-01-14T06:25:20.821Z,0
2017-01-14T06:26:01.347Z,0
2017-01-14T06:26:41.866Z,0
2017-01-14T06:27:22.382Z,0
2017-01-14T06:28:02.905Z,0
2017-01-14T06:28:43.413Z,0
2017-01-14T06:29:23.937Z,0
2017-01-14T06:30:04.468Z,0
2017-01-14T06:30:44.994Z,0
2017-01-14T06:31:25.523Z,0
2017-01-14T06:32:06.036Z,0
2017-01-14T06:32:46.565Z,0
2017-01-14T06:33:27.107Z,0
2017-01-14T06:34:07.628Z,0
2017-01-14T06:34:48.146Z,0
2017-01-14T06:35:28.670Z,0
2017-01-14T06:36:09.193Z,0
2017-01-14T06:36:49.691Z,0
2017-01-14T06:37:30.215Z,0
2017-01-14T06:38:10.746Z,0
2017-01-14T06:38:51.258Z,0
2017-01-14T06:39:31.782Z,0
2017-01-14T06:40:12.296Z,0
2017-01-14T06:40:52.819Z,0
2017-01-14T06:41:33.339Z,0
2017-01-14T06:42:13.868Z,0
2017-01-14T06:42:54.411Z,0
2017-01-14T06:43:34.932Z,0
2017-01-14T06:44:15.461Z,0
2017-01-14T06:44:55.979Z,0
2017-01-14T06:45:36.500Z,0
2017-01-14T06:46:17.023Z,0
2017-01-14T06:46:57.540Z,0
2017-01-14T06:47:38.066Z,0
2017-01-14T06:48:18.583Z,0
2017-01-14T06:48:59.103Z,0
2017-01-14T06:49:39.620Z,0
2017-01-14T06:50:20.147Z,0
2017-01-14T06:51:00.667Z,0
2017-01-14T06:51:41.186Z,0
2017-01-14T06:52:21.715Z,0
2017-01-14T06:53:02.226Z,0
2017-01-14T06:53:42.726Z,0
2017-01-14T06:54:23.251Z,0
2017-01-14T06:55:03.781Z,0
2017-01-14T06:55:44.313Z,0
2017-01-14T06:56:24.839Z,0
2017-01-14T06:57:05.366Z,0
2017-01-14T06:57:45.883Z,0
2017-01-14T06:58:26.397Z,0
2017-01-14T06:59:06.921Z,0
2017-01-14T06:59:47.459Z,0
2017-01-14T07:00:27.988Z,0
2017-01-14T07:01:08.499Z,0
2017-01-14T07:01:49.007Z,0
2017-01-14T07:02:29.526Z,0
2017-01-14T07:03:10.037Z,0
2017-01-14T07:03:50.567Z,0
2017-01-14T07:04:31.076Z,0
2017-01-14T07:05:11.595Z,0
2017-01-14T07:05:52.124Z,0
2017-01-14T07:06:32.655Z,0
2017-01-14T07:07:13.177Z,0
2017-01-14T07:07:53.699Z,0
2017-01-14T07:08:34.232Z,0
2017-01-14T07:09:14.756Z,0
2017-01-14T07:09:55.278Z,0
2017-01-14T07:10:35.793Z,0
2017-01-14T07:11:16.303Z,0
2017-01-14T07:11:56.805Z,0
2017-01-14T07:12:37.331Z,0
2017-01-14T07:13:17.827Z,0
2017-01-14T07:13:58.360Z,0
2017-01-14T07:14:38.919Z,0
2017-01-14T07:15:19.550Z,0
2017-01-14T07:16:00.080Z,0
2017-01-14T07:16:40.687Z,0
2017-01-14T07:17:21.586Z,0
2017-01-14T07:18:02.377Z,0
2017-01-14T07:18:42.958Z,0
2017-01-14T07:19:23.662Z,0
2017-01-14T07:20:04.068Z,0
2017-01-14T07:20:44.577Z,0
2017-01-14T07:21:25.267Z,0
2017-01-14T07:22:08.211Z,0
2017-01-14T07:22:48.963Z,0
2017-01-14T07:23:29.494Z,0
2017-01-14T07:24:10.023Z,0
2017-01-14T07:24:50.513Z,0
2017-01-14T07:25:31.033Z,0
2017-01-14T07:26:11.547Z,0
2017-01-14T07:26:52.063Z,0
2017-01-14T07:27:32.585Z,0
2017-01-14T07:28:13.079Z,0
2017-01-14T07:28:53.599Z,0
2017-01-14T07:29:34.100Z,0
2017-01-14T07:30:14.617Z,0
2017-01-14T07:30:55.135Z,0
2017-01-14T07:31:35.639Z,0
2017-01-14T07:32:16.172Z,0
2017-01-14T07:32:56.712Z,0
2017-01-14T07:33:37.225Z,0
2017-01-14T07:34:17.753Z,0
2017-01-14T07:34:58.282Z,0
2017-01-14T07:35:38.796Z,0
2017-01-14T07:36:19.349Z,0
2017-01-14T07:36:59.851Z,0
2017-01-14T07:37:40.376Z,0
2017-01-14T07:38:20.903Z,0
2017-01-14T07:39:01.436Z,0
2017-01-14T07:39:41.949Z,5
2017-01-14T07:40:22.506Z,5
2017-01-14T07:41:03.016Z,5
2017-01-14T07:41:43.548Z,5
2017-01-14T07:42:24.069Z,5
2017-01-14T07:43:04.576Z,5
2017-01-14T07:43:45.100Z,5
2017-01-14T07:44:25.609Z,5
2017-01-14T07:45:06.122Z,5
2017-01-14T07:45:46.653Z,5
2017-01-14T07:46:27.168Z,5
2017-01-14T07:47:07.681Z,5
2017-01-14T07:47:48.211Z,10
2017-01-14T07:48:28.721Z,5
2017-01-14T07:49:09.229Z,10
2017-01-14T07:49:49.747Z,5
2017-01-14T07:50:30.268Z,10
2017-01-14T07:51:10.785Z,10
2017-01-14T07:51:51.332Z,10
2017-01-14T07:52:31.849Z,5
2017-01-14T07:53:12.378Z,5
2017-01-14T07:53:52.908Z,5
2017-01-14T07:54:33.429Z,5
2017-01-14T07:55:13.952Z,5
2017-01-14T07:55:54.467Z,5
2017-01-14T07:56:34.988Z,5
2017-01-14T07:57:15.503Z,5
2017-01-14T07:57:56.026Z,5
2017-01-14T07:58:36.551Z,5
2017-01-14T07:59:17.076Z,5
2017-01-14T07:59:57.603Z,5
2017-01-14T08:00:38.131Z,10
2017-01-14T08:01:18.643Z,15
2017-01-14T08:01:59.159Z,15
2017-01-14T08:02:39.667Z,15
2017-01-14T08:03:20.195Z,10
2017-01-14T08:04:00.714Z,10
2017-01-14T08:04:41.231Z,10
2017-01-14T08:05:21.809Z,10
2017-01-14T08:06:02.284Z,15
2017-01-14T08:06:42.802Z,10
2017-01-14T08:07:23.302Z,10
2017-01-14T08:08:03.826Z,15
2017-01-14T08:08:44.360Z,15
2017-01-14T08:09:24.850Z,20
2017-01-14T08:10:05.379Z,20
2017-01-14T08:10:45.921Z,15
2017-01-14T08:11:26.439Z,20
2017-01-14T08:12:06.955Z,25
2017-01-14T08:12:47.469Z,25
2017-01-14T08:13:27.990Z,20
2017-01-14T08:14:08.519Z,20
2017-01-14T08:14:49.044Z,20
2017-01-14T08:15:29.563Z,20
2017-01-14T08:16:10.085Z,20
2017-01-14T08:16:50.612Z,20
2017-01-14T08:17:31.143Z,25
2017-01-14T08:18:11.667Z,25
2017-01-14T08:18:52.182Z,25
2017-01-14T08:19:32.686Z,25
2017-01-14T08:20:13.209Z,25
2017-01-14T08:20:53.720Z,30
2017-01-14T08:21:34.225Z,30
2017-01-14T08:22:14.735Z,30
2017-01-14T08:22:55.244Z,30
2017-01-14T08:23:35.775Z,30
2017-01-14T08:24:16.362Z,30
2017-01-14T08:24:56.905Z,25
2017-01-14T08:25:37.454Z,25
2017-01-14T08:26:17.980Z,30
2017-01-14T08:26:58.485Z,20
2017-01-14T08:27:38.992Z,20
2017-01-14T08:28:19.521Z,25
2017-01-14T08:29:00.037Z,25
2017-01-14T08:29:40.560Z,25
2017-01-14T08:30:21.093Z,25
2017-01-14T08:31:01.630Z,25
2017-01-14T08:31:42.139Z,25
2017-01-14T08:32:22.667Z,15
2017-01-14T08:33:03.191Z,15
2017-01-14T08:33:43.724Z,15
2017-01-14T08:34:24.247Z,10
2017-01-14T08:35:04.770Z,10
2017-01-14T08:35:45.277Z,15
2017-01-14T08:36:25.800Z,15
2017-01-14T08:37:06.318Z,15
2017-01-14T08:37:46.846Z,15
2017-01-14T08:38:27.373Z,15
2017-01-14T08:39:07.895Z,20
2017-01-14T08:39:48.413Z,15
2017-01-14T08:40:28.933Z,20
2017-01-14T08:41:09.450Z,20
2017-01-14T08:41:49.957Z,15
2017-01-14T08:42:30.489Z,15
2017-01-14T08:43:11.024Z,15
2017-01-14T08:43:51.544Z,20
2017-01-14T08:44:32.074Z,20
2017-01-14T08:45:12.593Z,25
2017-01-14T08:45:53.191Z,20
2017-01-14T08:46:33.702Z,20
2017-01-14T08:47:14.225Z,25
2017-01-14T08:47:54.753Z,30
2017-01-14T08:48:35.288Z,20
2017-01-14T08:50:54.574Z,20
2017-01-14T08:51:35.091Z,20
2017-01-14T08:52:15.602Z,25
2017-01-14T08:52:56.128Z,25
2017-01-14T08:53:36.637Z,30
2017-01-14T08:54:17.150Z,25
2017-01-14T08:54:57.669Z,25
2017-01-14T08:55:38.190Z,20
2017-01-14T08:56:18.715Z,20
2017-01-14T08:56:59.250Z,15
2017-01-14T08:57:39.774Z,15
2017-01-14T08:58:20.293Z,20
2017-01-14T08:59:00.822Z,20
2017-01-14T08:59:41.343Z,20
2017-01-14T09:00:21.865Z,20
2017-01-14T09:01:02.383Z,25
2017-01-14T09:01:42.927Z,30
2017-01-14T09:02:23.442Z,30
2017-01-14T09:03:03.951Z,25
2017-01-14T09:03:44.473Z,30
2017-01-14T09:04:25.001Z,30
2017-01-14T09:05:05.526Z,25
2017-01-14T09:05:46.061Z,30
2017-01-14T09:06:26.586Z,25
2017-01-14T09:07:07.109Z,25
2017-01-14T09:07:47.642Z,25
2017-01-14T09:08:28.168Z,25
2017-01-14T09:09:08.700Z,30
2017-01-14T09:09:49.209Z,30
2017-01-14T09:10:29.727Z,30
2017-01-14T09:11:10.245Z,35
2017-01-14T09:11:50.772Z,30
2017-01-14T09:12:31.298Z,30
2017-01-14T09:13:11.816Z,35
2017-01-14T09:13:52.338Z,35
2017-01-14T09:14:32.862Z,35
2017-01-14T09:15:13.376Z,30
2017-01-14T09:15:53.897Z,25
2017-01-14T09:16:34.428Z,25
2017-01-14T09:17:15.005Z,30
2017-01-14T09:17:55.539Z,35
2017-01-14T09:18:36.098Z,30
2017-01-14T09:19:16.626Z,30
2017-01-14T09:19:57.154Z,25
2017-01-14T09:20:37.705Z,25
2017-01-14T09:21:18.256Z,30
2017-01-14T09:21:58.788Z,40
2017-01-14T09:22:39.319Z,35
2017-01-14T09:23:19.854Z,35
2017-01-14T09:24:00.381Z,35
2017-01-14T09:24:40.934Z,40
2017-01-14T09:25:21.469Z,35
2017-01-14T09:26:02.019Z,30
2017-01-14T09:26:42.529Z,30
2017-01-14T09:27:23.056Z,35
2017-01-14T09:28:03.573Z,35
2017-01-14T09:28:44.110Z,35
2017-01-14T09:29:24.628Z,30
2017-01-14T09:30:05.156Z,30
2017-01-14T09:30:45.678Z,30
2017-01-14T09:31:26.237Z,40
2017-01-14T09:32:06.755Z,30
2017-01-14T09:34:41.222Z,60
2017-01-14T09:35:21.747Z,55
2017-01-14T09:36:02.261Z,55
2017-01-14T09:36:42.792Z,55
2017-01-14T09:37:23.312Z,55
2017-01-14T09:38:03.827Z,70
2017-01-14T09:38:44.333Z,65
2017-01-14T09:39:24.862Z,65
2017-01-14T09:40:05.379Z,50
2017-01-14T09:40:45.881Z,55
2017-01-14T09:41:26.406Z,45
2017-01-14T09:42:06.926Z,45
2017-01-14T09:42:47.451Z,55
2017-01-14T09:43:28.002Z,60
2017-01-14T09:44:08.538Z,75
2017-01-14T09:44:49.034Z,80
2017-01-14T09:45:29.555Z,85
2017-01-14T09:46:10.574Z,100
2017-01-14T09:46:51.104Z,85
2017-01-14T09:47:31.626Z,65
2017-01-14T09:48:12.145Z,55
2017-01-14T09:48:52.672Z,45
2017-01-14T09:49:33.209Z,40
2017-01-14T09:50:13.743Z,35
2017-01-14T09:50:54.254Z,35
2017-01-14T09:51:34.838Z,35
2017-01-14T09:52:15.376Z,35
2017-01-14T09:52:55.900Z,30
2017-01-14T09:53:36.419Z,35
2017-01-14T09:54:16.942Z,35
2017-01-14T09:54:57.450Z,35
2017-01-14T09:55:37.968Z,35
2017-01-14T09:56:18.503Z,35
2017-01-14T09:56:59.023Z,40
2017-01-14T09:57:39.551Z,35
2017-01-14T09:58:20.061Z,45
2017-01-14T09:59:00.597Z,45
2017-01-14T09:59:41.111Z,55
2017-01-14T10:00:21.646Z,60
2017-01-14T10:01:02.172Z,65
2017-01-14T10:01:42.698Z,70
2017-01-14T10:02:23.229Z,70
2017-01-14T10:03:03.752Z,80
2017-01-14T10:03:44.271Z,90
2017-01-14T10:04:24.813Z,95
2017-01-14T10:05:05.341Z,100
2017-01-14T10:05:45.868Z,100
2017-01-14T10:06:26.397Z,90
2017-01-14T10:07:06.928Z,80
2017-01-14T10:07:47.471Z,90
2017-01-14T10:08:28.000Z,70
2017-01-14T10:09:08.518Z,70
2017-01-14T10:09:49.063Z,55
2017-01-14T10:10:29.571Z,55
2017-01-14T10:11:10.082Z,55
2017-01-14T10:11:50.590Z,55
2017-01-14T10:12:31.115Z,60
2017-01-14T10:13:11.620Z,45
2017-01-14T10:13:52.112Z,40
2017-01-14T10:14:32.627Z,40
2017-01-14T10:15:13.126Z,40
2017-01-14T10:15:53.641Z,40
2017-01-14T10:16:34.189Z,40
2017-01-14T10:17:14.710Z,45
2017-01-14T10:17:55.223Z,40
2017-01-14T10:18:35.761Z,35
2017-01-14T10:19:16.282Z,35
2017-01-14T10:19:56.807Z,35
2017-01-14T10:20:37.337Z,40
2017-01-14T10:21:17.870Z,35
2017-01-14T10:21:58.383Z,35
2017-01-14T10:22:38.899Z,40
2017-01-14T10:23:19.417Z,30
2017-01-14T10:23:59.991Z,30
2017-01-14T10:24:40.534Z,35
2017-01-14T10:25:21.072Z,40
2017-01-14T10:26:01.606Z,45
2017-01-14T10:26:42.129Z,40
2017-01-14T10:27:22.655Z,45
2017-01-14T10:28:03.178Z,60
2017-01-14T10:28:43.699Z,70
2017-01-14T10:29:24.235Z,65
2017-01-14T10:30:04.813Z,65
2017-01-14T10:30:45.352Z,55
2017-01-14T10:31:25.877Z,50
2017-01-14T10:32:06.399Z,50
2017-01-14T10:32:46.942Z,65
2017-01-14T10:33:27.470Z,70
2017-01-14T10:34:08.009Z,60
2017-01-14T10:34:48.520Z,45
2017-01-14T10:35:29.027Z,45
2017-01-14T10:36:09.567Z,55
2017-01-14T10:36:50.082Z,60
2017-01-14T10:37:30.606Z,70
2017-01-14T10:38:11.121Z,75
2017-01-14T10:38:51.656Z,75
2017-01-14T10:39:32.163Z,75
2017-01-14T10:40:12.684Z,95
2017-01-14T10:40:53.196Z,90
2017-01-14T10:41:33.688Z,75
2017-01-14T10:42:14.216Z,95
2017-01-14T10:42:54.724Z,95
2017-01-14T10:43:35.242Z,90
2017-01-14T10:44:15.771Z,85
2017-01-14T10:44:56.315Z,80
2017-01-14T10:45:36.830Z,80
2017-01-14T10:46:17.359Z,80
2017-01-14T10:46:57.878Z,85
2017-01-14T10:47:38.380Z,80
2017-01-14T10:48:18.899Z,90
2017-01-14T10:48:59.420Z,80
2017-01-14T10:49:39.940Z,90
2017-01-14T10:50:20.463Z,110
2017-01-14T10:51:00.998Z,75
2017-01-14T10:51:41.519Z,65
2017-01-14T10:52:22.029Z,60
2017-01-14T10:53:02.559Z,65